createdAt,value
2018-02-13T00:00:25.407Z,39.30
2018-02-13T00:01:04.090Z,39.60
2018-02-13T00:01:39.283Z,25.10
2018-02-13T00:02:14.758Z,24.40
2018-02-13T00:02:50.049Z,26.00
2018-02-13T00:03:25.513Z,27.40
2018-02-13T00:04:01.211Z,29.60
2018-02-13T00:04:36.481Z,26.90
2018-02-13T00:05:13.072Z,32.50
2018-02-13T00:05:48.540Z,33.10
2018-02-13T00:06:23.958Z,31.70
2018-02-13T00:06:59.331Z,32.10
2018-02-13T00:07:35.928Z,26.30
2018-02-13T00:08:11.596Z,28.50
2018-02-13T00:08:46.887Z,27.60
2018-02-13T00:09:23.053Z,24.20
2018-02-13T00:09:58.344Z,26.70
2018-02-13T00:10:33.718Z,33.60
2018-02-13T00:11:09.044Z,31.90
2018-02-13T00:11:48.008Z,29.30
2018-02-13T00:12:23.598Z,31.80
2018-02-13T00:12:58.865Z,32.40
2018-02-13T00:13:34.362Z,33.30
2018-02-13T00:14:09.723Z,28.10
2018-02-13T00:14:44.924Z,30.80
2018-02-13T00:15:20.292Z,28.40
2018-02-13T00:15:56.482Z,26.40
2018-02-13T00:16:31.807Z,28.60
2018-02-13T00:17:07.497Z,22.90
2018-02-13T00:17:42.774Z,27.00
2018-02-13T00:18:18.064Z,26.90
2018-02-13T00:18:53.328Z,30.00
2018-02-13T00:19:28.621Z,31.30
2018-02-13T00:20:03.882Z,32.00
2018-02-13T00:20:39.683Z,29.10
2018-02-13T00:21:15.152Z,30.50
2018-02-13T00:21:50.477Z,27.20
2018-02-13T00:22:25.759Z,23.40
2018-02-13T00:23:01.859Z,24.00
2018-02-13T00:23:37.035Z,25.20
2018-02-13T00:24:12.327Z,24.40
2018-02-13T00:24:49.507Z,26.20
2018-02-13T00:25:24.898Z,26.60
2018-02-13T00:26:03.573Z,28.30
2018-02-13T00:26:39.074Z,26.70
2018-02-13T00:27:14.570Z,24.10
2018-02-13T00:27:50.075Z,24.30
2018-02-13T00:28:25.341Z,25.70
2018-02-13T00:29:00.536Z,25.20
2018-02-13T00:29:36.004Z,24.60
2018-02-13T00:30:11.511Z,25.50
2018-02-13T00:30:47.973Z,26.00
2018-02-13T00:31:23.278Z,29.80
2018-02-13T00:31:58.746Z,32.10
2018-02-13T00:32:34.167Z,29.40
2018-02-13T00:33:09.545Z,27.80
2018-02-13T00:33:45.138Z,31.80
2018-02-13T00:34:20.512Z,24.20
2018-02-13T00:34:56.112Z,24.10
2018-02-13T00:35:31.182Z,26.80
2018-02-13T00:36:06.377Z,26.10
2018-02-13T00:36:44.243Z,29.30
2018-02-13T00:37:19.947Z,25.50
2018-02-13T00:37:59.144Z,24.80
2018-02-13T00:38:34.546Z,30.90
2018-02-13T00:39:09.915Z,28.30
2018-02-13T00:39:45.311Z,25.30
2018-02-13T00:40:20.783Z,23.20
2018-02-13T00:40:56.068Z,24.60
2018-02-13T00:41:31.437Z,23.40
2018-02-13T00:42:07.023Z,27.20
2018-02-13T00:42:42.877Z,24.00
2018-02-13T00:43:18.290Z,23.30
2018-02-13T00:43:53.652Z,29.50
2018-02-13T00:44:29.046Z,24.80
2018-02-13T00:45:04.106Z,25.30
2018-02-13T00:45:44.290Z,25.00
2018-02-13T00:46:19.555Z,24.80
2018-02-13T00:46:54.737Z,26.70
2018-02-13T00:47:29.992Z,26.90
2018-02-13T00:48:06.277Z,24.70
2018-02-13T00:48:41.667Z,27.40
2018-02-13T00:49:16.757Z,25.20
2018-02-13T00:49:52.509Z,28.40
2018-02-13T00:50:27.891Z,28.80
2018-02-13T00:51:04.854Z,26.00
2018-02-13T00:51:42.034Z,23.90
2018-02-13T00:52:17.690Z,25.00
2018-02-13T00:52:53.174Z,27.30
2018-02-13T00:53:28.428Z,33.00
2018-02-13T00:54:03.453Z,31.90
2018-02-13T00:54:39.310Z,25.00
2018-02-13T00:55:14.493Z,23.60
2018-02-13T00:55:51.555Z,21.20
2018-02-13T00:56:26.633Z,23.50
2018-02-13T00:57:01.895Z,25.80
2018-02-13T00:57:38.080Z,25.60
2018-02-13T00:58:13.342Z,26.00
2018-02-13T00:58:48.750Z,27.60
2018-02-13T00:59:24.015Z,30.10
2018-02-13T00:59:59.314Z,27.20
2018-02-13T01:00:35.485Z,25.90
2018-02-13T01:01:10.970Z,24.50
2018-02-13T01:01:47.227Z,21.70
2018-02-13T01:02:22.317Z,22.60
2018-02-13T01:02:57.779Z,25.70
2018-02-13T01:03:33.173Z,22.50
2018-02-13T01:04:08.352Z,26.30
2018-02-13T01:04:43.839Z,24.00
2018-02-13T01:05:23.508Z,25.10
2018-02-13T01:05:59.133Z,22.90
2018-02-13T01:06:34.380Z,22.90
2018-02-13T01:09:49.912Z,25.40
2018-02-13T01:10:32.888Z,28.90
2018-02-13T01:11:14.879Z,25.10
2018-02-13T01:11:57.133Z,21.10
2018-02-13T01:12:34.720Z,20.80
2018-02-13T01:13:11.610Z,21.40
2018-02-13T01:13:46.961Z,21.90
2018-02-13T01:14:22.268Z,25.90
2018-02-13T01:14:57.306Z,29.20
2018-02-13T01:15:32.685Z,28.50
2018-02-13T01:16:07.933Z,25.60
2018-02-13T01:16:42.920Z,25.90
2018-02-13T01:17:18.073Z,22.30
2018-02-13T01:17:53.456Z,18.30
2018-02-13T01:18:28.718Z,26.80
2018-02-13T01:19:04.218Z,24.80
2018-02-13T01:19:39.374Z,20.80
2018-02-13T01:20:14.762Z,22.90
2018-02-13T01:20:51.414Z,22.10
2018-02-13T01:21:26.797Z,24.30
2018-02-13T01:22:01.952Z,28.10
2018-02-13T01:22:37.333Z,22.50
2018-02-13T01:23:12.891Z,22.60
2018-02-13T01:23:48.280Z,22.80
2018-02-13T01:24:23.551Z,23.00
2018-02-13T01:24:58.934Z,19.70
2018-02-13T01:25:34.194Z,23.50
2018-02-13T01:26:09.786Z,23.80
2018-02-13T01:26:45.147Z,20.40
2018-02-13T01:27:20.436Z,22.90
2018-02-13T01:27:56.107Z,22.60
2018-02-13T01:28:32.007Z,21.40
2018-02-13T01:29:07.599Z,24.70
2018-02-13T01:29:43.396Z,22.00
2018-02-13T01:30:18.465Z,21.70
2018-02-13T01:30:54.481Z,20.00
2018-02-13T01:31:30.155Z,19.60
2018-02-13T01:32:05.457Z,18.20
2018-02-13T01:32:40.640Z,26.10
2018-02-13T01:33:16.128Z,26.00
2018-02-13T01:33:51.197Z,21.20
2018-02-13T01:34:26.624Z,26.20
2018-02-13T01:35:02.207Z,27.30
2018-02-13T01:35:38.427Z,26.50
2018-02-13T01:36:13.704Z,20.30
2018-02-13T01:36:49.099Z,19.40
2018-02-13T01:37:24.494Z,23.00
2018-02-13T01:37:59.887Z,22.10
2018-02-13T01:38:34.852Z,20.10
2018-02-13T01:39:10.041Z,24.40
2018-02-13T01:39:45.333Z,25.50
2018-02-13T01:40:20.542Z,24.10
2018-02-13T01:40:55.810Z,21.90
2018-02-13T01:41:30.909Z,21.10
2018-02-13T01:42:06.066Z,21.20
2018-02-13T01:42:41.960Z,22.20
2018-02-13T01:43:17.417Z,23.80
2018-02-13T01:43:52.510Z,22.80
2018-02-13T01:44:28.284Z,21.50
2018-02-13T01:45:04.708Z,22.60
2018-02-13T01:45:42.073Z,22.10
2018-02-13T01:46:17.476Z,23.60
2018-02-13T01:46:52.738Z,22.10
2018-02-13T01:47:27.722Z,19.20
2018-02-13T01:48:03.088Z,17.40
2018-02-13T01:48:38.888Z,21.00
2018-02-13T01:49:14.567Z,21.60
2018-02-13T01:49:49.960Z,20.20
2018-02-13T01:50:25.363Z,20.80
2018-02-13T01:51:00.775Z,22.20
2018-02-13T01:51:35.947Z,19.90
2018-02-13T01:52:11.345Z,20.50
2018-02-13T01:52:46.727Z,20.20
2018-02-13T01:53:22.018Z,22.20
2018-02-13T01:53:57.376Z,22.80
2018-02-13T01:54:32.563Z,19.40
2018-02-13T01:55:07.830Z,24.40
2018-02-13T01:55:43.166Z,25.60
2018-02-13T01:56:18.836Z,26.20
2018-02-13T01:56:54.236Z,22.00
2018-02-13T01:57:29.611Z,20.70
2018-02-13T01:58:05.002Z,18.70
2018-02-13T01:58:40.366Z,19.80
2018-02-13T01:59:15.963Z,21.60
2018-02-13T01:59:51.360Z,19.20
2018-02-13T02:00:27.269Z,19.10
2018-02-13T02:01:03.531Z,21.20
2018-02-13T02:01:39.013Z,23.60
2018-02-13T02:02:14.270Z,23.40
2018-02-13T02:02:49.561Z,19.90
2018-02-13T02:03:24.522Z,20.10
2018-02-13T02:03:59.712Z,22.30
2018-02-13T02:04:34.869Z,23.10
2018-02-13T02:05:09.961Z,25.40
2018-02-13T02:05:48.046Z,23.00
2018-02-13T02:06:23.433Z,20.50
2018-02-13T02:06:58.793Z,22.60
2018-02-13T02:07:34.285Z,19.40
2018-02-13T02:08:09.644Z,25.50
2018-02-13T02:08:44.826Z,21.10
2018-02-13T02:09:20.083Z,22.70
2018-02-13T02:09:55.463Z,26.00
2018-02-13T02:10:30.721Z,21.40
2018-02-13T02:11:09.110Z,17.40
2018-02-13T02:11:44.468Z,17.70
2018-02-13T02:12:19.459Z,21.80
2018-02-13T02:12:54.719Z,29.00
2018-02-13T02:13:29.916Z,29.80
2018-02-13T02:14:04.973Z,22.70
2018-02-13T02:14:40.271Z,22.60
2018-02-13T02:15:15.754Z,26.90
2018-02-13T02:15:51.443Z,20.30
2018-02-13T02:16:26.743Z,22.00
2018-02-13T02:17:02.229Z,21.00
2018-02-13T02:17:38.101Z,24.80
2018-02-13T02:18:13.301Z,32.70
2018-02-13T02:18:48.570Z,30.20
2018-02-13T02:19:23.875Z,22.80
2018-02-13T02:19:58.931Z,19.70
2018-02-13T02:20:34.456Z,18.90
2018-02-13T02:21:09.519Z,24.70
2018-02-13T02:21:44.944Z,26.90
2018-02-13T02:22:20.206Z,26.20
2018-02-13T02:22:55.800Z,19.10
2018-02-13T02:23:30.767Z,21.80
2018-02-13T02:24:05.958Z,27.40
2018-02-13T02:24:42.028Z,21.30
2018-02-13T02:25:17.623Z,29.10
2018-02-13T02:25:52.847Z,25.10
2018-02-13T02:26:27.981Z,16.30
2018-02-13T02:27:03.189Z,19.80
2018-02-13T02:27:38.903Z,20.50
2018-02-13T02:28:13.865Z,23.00
2018-02-13T02:28:48.966Z,22.80
2018-02-13T02:29:24.625Z,19.60
2018-02-13T02:29:59.718Z,18.40
2018-02-13T02:30:35.188Z,16.90
2018-02-13T02:31:10.183Z,18.60
2018-02-13T02:31:45.351Z,18.20
2018-02-13T02:32:20.786Z,21.60
2018-02-13T02:32:57.451Z,21.70
2018-02-13T02:33:32.640Z,20.40
2018-02-13T02:34:07.925Z,15.90
2018-02-13T02:34:43.128Z,17.50
2018-02-13T02:35:18.356Z,21.10
2018-02-13T02:35:53.495Z,25.00
2018-02-13T02:36:29.056Z,20.60
2018-02-13T02:37:04.455Z,23.20
2018-02-13T02:37:39.950Z,23.60
2018-02-13T02:38:15.246Z,22.80
2018-02-13T02:38:50.408Z,16.20
2018-02-13T02:39:25.806Z,15.20
2018-02-13T02:40:01.372Z,16.70
2018-02-13T02:40:37.073Z,18.50
2018-02-13T02:41:12.347Z,20.90
2018-02-13T02:41:47.740Z,21.50
2018-02-13T02:42:23.113Z,22.60
2018-02-13T02:42:58.432Z,21.50
2018-02-13T02:43:33.999Z,21.50
2018-02-13T02:44:09.204Z,22.30
2018-02-13T02:44:44.366Z,23.00
2018-02-13T02:45:19.763Z,24.80
2018-02-13T02:45:56.126Z,18.90
2018-02-13T02:46:31.923Z,19.60
2018-02-13T02:47:07.386Z,20.40
2018-02-13T02:47:43.193Z,19.50
2018-02-13T02:48:18.396Z,19.90
2018-02-13T02:48:53.690Z,19.20
2018-02-13T02:49:29.063Z,15.30
2018-02-13T02:50:04.464Z,18.70
2018-02-13T02:50:40.326Z,19.90
2018-02-13T02:51:15.821Z,19.20
2018-02-13T02:51:51.085Z,21.10
2018-02-13T02:52:26.387Z,21.80
2018-02-13T02:53:01.748Z,22.50
2018-02-13T02:53:37.137Z,21.70
2018-02-13T02:54:12.405Z,21.40
2018-02-13T02:54:47.907Z,21.00
2018-02-13T02:55:23.183Z,19.70
2018-02-13T02:55:58.375Z,22.00
2018-02-13T02:56:33.641Z,17.90
2018-02-13T02:57:09.127Z,18.40
2018-02-13T02:57:44.300Z,19.60
2018-02-13T02:58:19.484Z,20.40
2018-02-13T02:58:54.839Z,19.60
2018-02-13T02:59:30.231Z,22.20
2018-02-13T03:00:05.699Z,22.80
2018-02-13T03:00:43.988Z,18.90
2018-02-13T03:01:18.956Z,20.30
2018-02-13T03:01:54.167Z,19.70
2018-02-13T03:02:29.233Z,17.60
2018-02-13T03:03:04.727Z,15.80
2018-02-13T03:03:40.190Z,18.40
2018-02-13T03:04:15.609Z,15.60
2018-02-13T03:04:50.979Z,13.00
2018-02-13T03:05:26.078Z,15.50
2018-02-13T03:06:01.249Z,17.70
2018-02-13T03:06:36.741Z,18.50
2018-02-13T03:07:11.809Z,20.80
2018-02-13T03:07:47.099Z,21.90
2018-02-13T03:08:22.368Z,22.60
2018-02-13T03:08:57.554Z,19.20
2018-02-13T03:09:33.054Z,17.80
2018-02-13T03:10:08.447Z,24.30
2018-02-13T03:10:43.812Z,19.60
2018-02-13T03:11:19.199Z,20.50
2018-02-13T03:11:54.371Z,19.90
2018-02-13T03:12:29.756Z,25.70
2018-02-13T03:13:04.825Z,22.90
2018-02-13T03:13:40.125Z,15.80
2018-02-13T03:14:15.193Z,18.40
2018-02-13T03:14:50.316Z,18.90
2018-02-13T03:15:25.280Z,15.10
2018-02-13T03:16:00.574Z,17.40
2018-02-13T03:16:35.638Z,22.20
2018-02-13T03:17:10.832Z,24.00
2018-02-13T03:17:46.394Z,21.40
2018-02-13T03:18:21.889Z,20.60
2018-02-13T03:18:57.152Z,21.40
2018-02-13T03:19:32.341Z,17.00
2018-02-13T03:20:07.863Z,21.40
2018-02-13T03:20:44.059Z,20.80
2018-02-13T03:21:19.321Z,20.90
2018-02-13T03:21:54.417Z,19.50
2018-02-13T03:22:29.695Z,15.90
2018-02-13T03:23:05.082Z,20.70
2018-02-13T03:23:40.155Z,20.80
2018-02-13T03:24:15.447Z,18.30
2018-02-13T03:24:50.520Z,19.20
2018-02-13T03:25:26.042Z,15.50
2018-02-13T03:26:01.406Z,17.20
2018-02-13T03:26:36.510Z,19.30
2018-02-13T03:27:11.976Z,18.40
2018-02-13T03:27:47.672Z,16.20
2018-02-13T03:28:23.034Z,14.30
2018-02-13T03:28:58.427Z,17.20
2018-02-13T03:29:33.996Z,16.50
2018-02-13T03:30:09.193Z,13.00
2018-02-13T03:30:45.885Z,14.60
2018-02-13T03:31:20.993Z,13.90
2018-02-13T03:31:56.258Z,17.50
2018-02-13T03:32:31.554Z,20.20
2018-02-13T03:33:06.918Z,18.30
2018-02-13T03:33:42.208Z,14.40
2018-02-13T03:34:17.569Z,15.50
2018-02-13T03:34:53.361Z,15.70
2018-02-13T03:35:28.521Z,17.20
2018-02-13T03:36:03.650Z,17.10
2018-02-13T03:36:39.217Z,15.20
2018-02-13T03:37:14.409Z,18.40
2018-02-13T03:37:49.575Z,22.20
2018-02-13T03:38:24.861Z,18.80
2018-02-13T03:39:00.032Z,20.40
2018-02-13T03:39:35.231Z,18.50
2018-02-13T03:40:10.308Z,14.50
2018-02-13T03:40:45.600Z,16.50
2018-02-13T03:41:20.895Z,16.70
2018-02-13T03:41:56.383Z,16.30
2018-02-13T03:42:31.646Z,21.80
2018-02-13T03:43:06.843Z,20.30
2018-02-13T03:43:42.312Z,21.00
2018-02-13T03:44:17.505Z,17.10
2018-02-13T03:44:52.887Z,19.50
2018-02-13T03:45:28.273Z,17.70
2018-02-13T03:46:03.468Z,20.70
2018-02-13T03:46:38.688Z,21.70
2018-02-13T03:47:13.764Z,21.40
2018-02-13T03:47:48.972Z,16.90
2018-02-13T03:48:24.238Z,21.50
2018-02-13T03:48:59.549Z,19.60
2018-02-13T03:49:34.842Z,16.90
2018-02-13T03:50:10.047Z,17.90
2018-02-13T03:50:45.830Z,18.80
2018-02-13T03:51:21.530Z,16.70
2018-02-13T03:51:56.734Z,17.00
2018-02-13T03:52:32.036Z,15.70
2018-02-13T03:53:07.327Z,20.10
2018-02-13T03:53:42.757Z,17.80
2018-02-13T03:54:18.138Z,16.80
2018-02-13T03:54:53.555Z,18.00
2018-02-13T03:55:28.734Z,16.10
2018-02-13T03:56:03.950Z,16.30
2018-02-13T03:56:39.027Z,17.60
2018-02-13T03:57:14.249Z,14.60
2018-02-13T03:57:49.736Z,15.00
2018-02-13T03:58:25.046Z,15.50
2018-02-13T03:59:00.132Z,17.50
2018-02-13T03:59:35.540Z,18.00
2018-02-13T04:00:10.946Z,18.90
2018-02-13T04:00:46.474Z,17.40
2018-02-13T04:01:21.652Z,13.90
2018-02-13T04:01:56.751Z,15.20
2018-02-13T04:02:31.850Z,17.10
2018-02-13T04:03:07.150Z,23.50
2018-02-13T04:03:42.423Z,30.70
2018-02-13T04:04:17.718Z,23.60
2018-02-13T04:04:53.191Z,17.60
2018-02-13T04:05:28.785Z,20.20
2018-02-13T04:06:04.454Z,16.70
2018-02-13T04:06:40.080Z,15.30
2018-02-13T04:07:15.537Z,21.00
2018-02-13T04:07:51.275Z,25.90
2018-02-13T04:08:26.658Z,18.70
2018-02-13T04:09:01.850Z,16.30
2018-02-13T04:09:37.418Z,17.90
2018-02-13T04:10:12.721Z,21.30
2018-02-13T04:10:49.994Z,17.80
2018-02-13T04:11:25.390Z,11.30
2018-02-13T04:12:00.863Z,13.80
2018-02-13T04:12:36.560Z,14.10
2018-02-13T04:13:11.664Z,13.70
2018-02-13T04:13:46.956Z,14.50
2018-02-13T04:14:21.923Z,17.20
2018-02-13T04:14:57.119Z,17.30
2018-02-13T04:15:32.499Z,18.90
2018-02-13T04:16:08.111Z,17.10
2018-02-13T04:16:43.293Z,13.50
2018-02-13T04:17:18.496Z,14.00
2018-02-13T04:17:53.781Z,16.60
2018-02-13T04:18:29.020Z,15.30
2018-02-13T04:19:04.393Z,15.80
2018-02-13T04:19:39.593Z,15.50
2018-02-13T04:20:14.970Z,17.10
2018-02-13T04:20:50.478Z,19.60
2018-02-13T04:21:25.746Z,22.90
2018-02-13T04:22:00.933Z,18.50
2018-02-13T04:22:36.206Z,22.50
2018-02-13T04:23:11.503Z,19.10
2018-02-13T04:23:46.699Z,15.20
2018-02-13T04:24:22.099Z,16.70
2018-02-13T04:24:57.468Z,22.30
2018-02-13T04:25:32.965Z,21.10
2018-02-13T04:26:08.339Z,19.30
2018-02-13T04:26:44.437Z,21.00
2018-02-13T04:27:19.512Z,19.20
2018-02-13T04:27:54.704Z,19.20
2018-02-13T04:28:29.878Z,16.10
2018-02-13T04:29:04.903Z,19.30
2018-02-13T04:29:40.083Z,18.30
2018-02-13T04:30:15.268Z,21.20
2018-02-13T04:30:52.650Z,21.30
2018-02-13T04:31:27.850Z,20.90
2018-02-13T04:32:03.227Z,28.00
2018-02-13T04:32:38.424Z,21.90
2018-02-13T04:33:13.791Z,18.20
2018-02-13T04:33:49.189Z,22.80
2018-02-13T04:34:24.735Z,21.90
2018-02-13T04:35:00.113Z,17.00
2018-02-13T04:35:36.281Z,17.60
2018-02-13T04:36:11.586Z,18.70
2018-02-13T04:36:46.952Z,21.40
2018-02-13T04:37:22.347Z,21.70
2018-02-13T04:37:57.616Z,20.80
2018-02-13T04:38:33.204Z,23.30
2018-02-13T04:39:08.677Z,22.00
2018-02-13T04:39:43.900Z,21.70
2018-02-13T04:40:19.195Z,18.70
2018-02-13T04:40:55.413Z,21.90
2018-02-13T04:41:30.783Z,25.90
2018-02-13T04:42:06.181Z,21.10
2018-02-13T04:42:41.651Z,18.60
2018-02-13T04:43:17.075Z,17.70
2018-02-13T04:43:52.519Z,20.80
2018-02-13T04:44:27.811Z,20.30
2018-02-13T04:45:03.325Z,18.50
2018-02-13T04:45:39.420Z,19.20
2018-02-13T04:46:14.690Z,17.00
2018-02-13T04:46:49.991Z,16.60
2018-02-13T04:47:25.167Z,18.90
2018-02-13T04:48:00.483Z,18.90
2018-02-13T04:48:35.846Z,17.20
2018-02-13T04:49:11.148Z,20.60
2018-02-13T04:49:46.350Z,20.80
2018-02-13T04:50:21.745Z,19.10
2018-02-13T04:50:57.618Z,19.00
2018-02-13T04:51:32.922Z,16.20
2018-02-13T04:52:08.389Z,13.40
2018-02-13T04:52:43.995Z,17.50
2018-02-13T04:53:19.178Z,17.60
2018-02-13T04:53:54.494Z,15.00
2018-02-13T04:54:29.671Z,12.70
2018-02-13T04:55:04.872Z,21.30
2018-02-13T04:55:40.288Z,24.70
2018-02-13T04:56:15.500Z,17.20
2018-02-13T04:56:50.857Z,18.80
2018-02-13T04:57:25.965Z,24.40
2018-02-13T04:58:01.142Z,24.10
2018-02-13T04:58:36.462Z,22.70
2018-02-13T04:59:11.836Z,22.90
2018-02-13T04:59:47.029Z,21.00
2018-02-13T05:00:22.594Z,17.30
2018-02-13T05:01:00.420Z,20.10
2018-02-13T05:01:35.590Z,19.80
2018-02-13T05:02:10.989Z,16.60
2018-02-13T05:02:46.163Z,16.90
2018-02-13T05:03:21.364Z,15.00
2018-02-13T05:03:56.740Z,15.80
2018-02-13T05:04:32.141Z,14.20
2018-02-13T05:05:07.412Z,15.50
2018-02-13T05:05:43.116Z,15.60
2018-02-13T05:06:18.418Z,17.00
2018-02-13T05:06:53.419Z,18.90
2018-02-13T05:07:29.088Z,22.00
2018-02-13T05:08:04.394Z,19.00
2018-02-13T05:08:39.663Z,19.00
2018-02-13T05:09:14.964Z,17.30
2018-02-13T05:09:50.450Z,17.50
2018-02-13T05:10:25.681Z,19.90
2018-02-13T05:11:00.959Z,15.40
2018-02-13T05:11:36.992Z,14.00
2018-02-13T05:12:12.683Z,13.30
2018-02-13T05:12:48.949Z,13.30
2018-02-13T05:13:24.288Z,13.80
2018-02-13T05:13:59.601Z,18.10
2018-02-13T05:14:34.997Z,20.40
2018-02-13T05:15:10.405Z,17.90
2018-02-13T05:15:46.680Z,21.90
2018-02-13T05:16:22.278Z,21.00
2018-02-13T05:16:57.403Z,17.60
2018-02-13T05:17:32.600Z,16.50
2018-02-13T05:18:07.872Z,18.10
2018-02-13T05:18:43.373Z,19.00
2018-02-13T05:19:18.647Z,15.70
2018-02-13T05:19:54.050Z,17.10
2018-02-13T05:20:29.426Z,17.90
2018-02-13T05:21:04.725Z,19.70
2018-02-13T05:21:40.403Z,22.00
2018-02-13T05:22:15.934Z,20.10
2018-02-13T05:22:51.002Z,17.00
2018-02-13T05:23:26.113Z,14.40
2018-02-13T05:24:01.476Z,13.70
2018-02-13T05:24:36.678Z,18.50
2018-02-13T05:25:13.154Z,21.30
2018-02-13T05:25:48.558Z,19.80
2018-02-13T05:26:23.834Z,19.10
2018-02-13T05:26:58.833Z,18.80
2018-02-13T05:27:34.134Z,18.00
2018-02-13T05:28:09.533Z,20.70
2018-02-13T05:28:45.006Z,21.60
2018-02-13T05:29:20.202Z,17.60
2018-02-13T05:29:55.772Z,13.10
2018-02-13T05:30:30.775Z,13.00
2018-02-13T05:31:06.341Z,20.00
2018-02-13T05:31:41.836Z,23.60
2018-02-13T05:32:17.209Z,19.80
2018-02-13T05:32:53.638Z,14.40
2018-02-13T05:33:28.916Z,18.70
2018-02-13T05:34:04.210Z,17.40
2018-02-13T05:34:39.586Z,14.80
2018-02-13T05:35:14.709Z,17.90
2018-02-13T05:35:50.285Z,15.00
2018-02-13T05:36:25.597Z,19.40
2018-02-13T05:37:00.964Z,25.50
2018-02-13T05:37:36.167Z,21.10
2018-02-13T05:38:11.372Z,17.00
2018-02-13T05:38:46.576Z,16.00
2018-02-13T05:39:21.742Z,17.20
2018-02-13T05:39:57.045Z,17.90
2018-02-13T05:40:32.113Z,16.20
2018-02-13T05:41:07.422Z,15.60
2018-02-13T05:41:42.693Z,15.00
2018-02-13T05:42:18.193Z,16.80
2018-02-13T05:42:53.572Z,20.90
2018-02-13T05:43:28.997Z,20.00
2018-02-13T05:44:04.378Z,18.10
2018-02-13T05:44:40.086Z,19.10
2018-02-13T05:45:15.659Z,18.00
2018-02-13T05:45:54.452Z,14.00
2018-02-13T05:46:29.734Z,16.40
2018-02-13T05:47:05.153Z,17.30
2018-02-13T05:47:40.829Z,16.40
2018-02-13T05:48:16.164Z,16.00
2018-02-13T05:48:51.353Z,14.50
2018-02-13T05:49:26.865Z,17.30
2018-02-13T05:50:02.153Z,14.90
2018-02-13T05:50:39.248Z,16.20
2018-02-13T05:51:14.435Z,20.60
2018-02-13T05:51:49.639Z,19.60
2018-02-13T05:52:24.921Z,14.30
2018-02-13T05:53:00.119Z,13.60
2018-02-13T05:53:35.437Z,15.70
2018-02-13T05:54:10.554Z,12.60
2018-02-13T05:54:46.241Z,16.30
2018-02-13T05:55:21.855Z,17.80
2018-02-13T05:55:57.438Z,19.80
2018-02-13T05:56:32.660Z,16.00
2018-02-13T05:57:07.947Z,16.80
2018-02-13T05:57:43.667Z,16.90
2018-02-13T05:58:19.182Z,14.20
2018-02-13T05:58:54.513Z,15.90
2018-02-13T05:59:29.893Z,17.20
2018-02-13T06:00:05.202Z,16.20
2018-02-13T06:00:42.796Z,16.40
2018-02-13T06:01:17.912Z,16.80
2018-02-13T06:01:53.134Z,17.20
2018-02-13T06:02:28.245Z,15.10
2018-02-13T06:03:03.641Z,15.30
2018-02-13T06:03:38.890Z,15.40
2018-02-13T06:04:14.380Z,14.60
2018-02-13T06:04:49.806Z,16.50
2018-02-13T06:05:25.106Z,16.80
2018-02-13T06:06:00.225Z,16.00
2018-02-13T06:06:35.512Z,15.90
2018-02-13T06:07:10.937Z,16.20
2018-02-13T06:07:46.334Z,17.40
2018-02-13T06:08:21.753Z,19.60
2018-02-13T06:08:57.372Z,16.50
2018-02-13T06:09:32.700Z,15.50
2018-02-13T06:10:07.981Z,16.30
2018-02-13T06:10:43.492Z,16.40
2018-02-13T06:11:18.785Z,17.80
2018-02-13T06:11:54.501Z,18.60
2018-02-13T06:12:29.698Z,23.90
2018-02-13T06:13:04.917Z,22.70
2018-02-13T06:13:40.548Z,19.70
2018-02-13T06:14:16.069Z,19.70
2018-02-13T06:14:51.464Z,16.00
2018-02-13T06:15:26.791Z,16.90
2018-02-13T06:16:02.088Z,19.90
2018-02-13T06:16:37.407Z,15.80
2018-02-13T06:17:12.506Z,13.60
2018-02-13T06:17:47.620Z,16.80
2018-02-13T06:18:22.745Z,14.80
2018-02-13T06:18:58.315Z,15.80
2018-02-13T06:19:33.608Z,12.80
2018-02-13T06:20:09.056Z,15.70
2018-02-13T06:20:46.854Z,21.50
2018-02-13T06:21:22.183Z,15.30
2018-02-13T06:21:57.370Z,16.00
2018-02-13T06:22:32.677Z,11.50
2018-02-13T06:23:08.085Z,15.80
2018-02-13T06:23:44.575Z,15.80
2018-02-13T06:24:19.804Z,13.20
2018-02-13T06:24:55.223Z,11.50
2018-02-13T06:25:30.716Z,13.60
2018-02-13T06:26:06.236Z,15.60
2018-02-13T06:26:41.434Z,17.50
2018-02-13T06:27:16.761Z,14.10
2018-02-13T06:27:53.752Z,15.70
2018-02-13T06:28:30.376Z,14.40
2018-02-13T06:29:05.770Z,11.60
2018-02-13T06:29:41.220Z,14.50
2018-02-13T06:30:16.509Z,19.30
2018-02-13T06:30:52.971Z,18.10
2018-02-13T06:31:28.066Z,16.20
2018-02-13T06:32:03.284Z,14.90
2018-02-13T06:32:38.584Z,14.90
2018-02-13T06:33:14.007Z,16.50
2018-02-13T06:33:49.207Z,14.60
2018-02-13T06:34:24.582Z,13.50
2018-02-13T06:34:59.698Z,15.00
2018-02-13T06:35:35.022Z,14.60
2018-02-13T06:36:10.418Z,13.00
2018-02-13T06:36:45.544Z,18.50
2018-02-13T06:37:20.638Z,21.90
2018-02-13T06:37:56.162Z,18.00
2018-02-13T06:38:31.556Z,16.90
2018-02-13T06:39:07.175Z,19.30
2018-02-13T06:39:42.673Z,15.90
2018-02-13T06:40:18.221Z,14.80
2018-02-13T06:40:53.662Z,12.00
2018-02-13T06:41:28.939Z,11.40
2018-02-13T06:42:04.336Z,13.70
2018-02-13T06:42:39.664Z,16.60
2018-02-13T06:43:14.962Z,20.50
2018-02-13T06:43:50.085Z,14.80
2018-02-13T06:44:25.484Z,16.60
2018-02-13T06:45:00.744Z,19.00
2018-02-13T06:45:38.669Z,18.90
2018-02-13T06:46:14.188Z,16.30
2018-02-13T06:46:49.480Z,20.80
2018-02-13T06:47:25.109Z,15.90
2018-02-13T06:48:00.502Z,14.40
2018-02-13T06:48:36.140Z,13.90
2018-02-13T06:49:11.543Z,11.20
2018-02-13T06:49:46.973Z,14.10
2018-02-13T06:50:22.366Z,18.30
2018-02-13T06:50:57.812Z,20.80
2018-02-13T06:51:33.013Z,22.30
2018-02-13T06:52:08.654Z,20.30
2018-02-13T06:52:43.980Z,20.00
2018-02-13T06:53:19.406Z,18.10
2018-02-13T06:53:54.807Z,17.70
2018-02-13T06:54:30.034Z,15.40
2018-02-13T06:55:05.626Z,14.40
2018-02-13T06:55:41.054Z,15.50
2018-02-13T06:56:16.304Z,16.00
2018-02-13T06:56:51.531Z,14.10
2018-02-13T06:57:26.907Z,16.70
2018-02-13T06:58:02.163Z,18.00
2018-02-13T06:58:37.562Z,14.70
2018-02-13T06:59:12.888Z,12.30
2018-02-13T06:59:48.286Z,13.80
2018-02-13T07:00:23.508Z,13.10
2018-02-13T07:01:00.109Z,14.70
2018-02-13T07:01:35.675Z,15.30
2018-02-13T07:02:10.784Z,18.00
2018-02-13T07:02:46.122Z,20.90
2018-02-13T07:03:21.521Z,17.80
2018-02-13T07:03:56.841Z,18.60
2018-02-13T07:04:32.232Z,25.20
2018-02-13T07:05:09.461Z,19.30
2018-02-13T07:05:45.363Z,20.40
2018-02-13T07:06:20.679Z,17.60
2018-02-13T07:06:55.906Z,20.60
2018-02-13T07:07:31.022Z,16.10
2018-02-13T07:08:06.223Z,13.60
2018-02-13T07:08:41.655Z,18.80
2018-02-13T07:09:16.945Z,19.40
2018-02-13T07:09:52.379Z,20.80
2018-02-13T07:10:27.463Z,15.50
2018-02-13T07:11:03.085Z,14.60
2018-02-13T07:11:38.182Z,15.30
2018-02-13T07:12:13.554Z,16.80
2018-02-13T07:12:49.048Z,15.70
2018-02-13T07:13:24.474Z,14.40
2018-02-13T07:13:59.966Z,14.70
2018-02-13T07:14:35.486Z,12.40
2018-02-13T07:15:10.880Z,15.60
2018-02-13T07:15:46.998Z,14.20
2018-02-13T07:16:22.397Z,16.20
2018-02-13T07:16:57.524Z,17.30
2018-02-13T07:17:32.541Z,13.10
2018-02-13T07:18:07.880Z,18.10
2018-02-13T07:18:43.373Z,21.30
2018-02-13T07:19:18.804Z,21.30
2018-02-13T07:19:53.895Z,16.00
2018-02-13T07:20:29.427Z,12.50
2018-02-13T07:21:04.838Z,17.90
2018-02-13T07:21:40.257Z,14.90
2018-02-13T07:22:15.654Z,10.70
2018-02-13T07:22:52.804Z,16.60
2018-02-13T07:23:27.897Z,13.10
2018-02-13T07:24:03.418Z,15.00
2018-02-13T07:24:38.810Z,13.80
2018-02-13T07:25:14.140Z,19.80
2018-02-13T07:25:51.426Z,20.10
2018-02-13T07:26:29.951Z,17.10
2018-02-13T07:27:05.442Z,18.70
2018-02-13T07:27:39.071Z,12.70
2018-02-13T07:28:17.502Z,17.50
2018-02-13T07:28:53.124Z,14.00
2018-02-13T07:29:28.425Z,15.00
2018-02-13T07:30:05.148Z,15.70
2018-02-13T07:30:41.345Z,15.80
2018-02-13T07:31:16.975Z,15.70
2018-02-13T07:31:52.268Z,12.20
2018-02-13T07:32:27.590Z,17.20
2018-02-13T07:33:04.780Z,17.70
2018-02-13T07:33:45.622Z,16.30
2018-02-13T07:34:23.817Z,20.10
2018-02-13T07:34:59.342Z,16.30
2018-02-13T07:35:35.045Z,15.80
2018-02-13T07:36:17.972Z,17.20
2018-02-13T07:36:53.765Z,14.60
2018-02-13T07:37:28.988Z,17.20
2018-02-13T07:38:04.483Z,13.40
2018-02-13T07:38:40.211Z,11.60
2018-02-13T07:39:15.545Z,15.50
2018-02-13T07:39:51.262Z,15.90
2018-02-13T07:40:26.554Z,13.30